Cookley, United Kingdom
Current Conditions -  °F | °C
As of 4:20 PM on Wednesday 26 Nov 2014 (Local Time) from EGSD Reporting Station
Light Rain Light Rain  
Wind Chill: 50°   Ceiling: 400
Heat Index: 50°   Visibility: 0.75mi
Dew Point: 48°   Wind: 6mph
Humidity: 94%   Direction: 120°ESE
Pressure: 29.83"   Gusts: NA
Location:  52.32°N, 1.45°E
Report Text: EGSD 261620Z 12005KT 1200 -RA BR SCT002 BKN004 10/09 Q1010
Loading
Personal Weather Stations






























Interactive Weather Map New forecast layout! Learn more

10-Day Weather Forecast

Advertisements
Track Severe Weather on mobile